createdAt,value
2022-10-25T00:02:01.961Z,50.30
2022-10-25T00:04:49.826Z,41.50
2022-10-25T00:07:20.124Z,49.03
2022-10-25T00:09:49.085Z,77.63
2022-10-25T00:12:17.817Z,62.43
2022-10-25T00:14:46.672Z,59.73
2022-10-25T00:17:15.619Z,59.80
2022-10-25T00:19:44.498Z,72.23
2022-10-25T00:22:13.281Z,65.97
2022-10-25T00:24:43.611Z,67.10
2022-10-25T00:27:12.637Z,56.47
2022-10-25T00:29:41.516Z,51.27
2022-10-25T00:32:10.313Z,70.53
2022-10-25T00:34:42.081Z,74.27
2022-10-25T00:37:11.067Z,83.37
2022-10-25T00:39:39.992Z,81.50
2022-10-25T00:42:15.279Z,81.17
2022-10-25T00:44:51.888Z,83.83
2022-10-25T00:47:49.120Z,77.83
2022-10-25T00:50:31.086Z,71.43
2022-10-25T00:53:06.133Z,78.43
2022-10-25T00:55:35.314Z,70.93
2022-10-25T00:58:08.736Z,71.57
2022-10-25T01:00:37.964Z,70.30
2022-10-25T01:03:07.853Z,72.17
2022-10-25T01:05:37.627Z,71.60
2022-10-25T01:08:07.552Z,68.10
2022-10-25T01:10:36.534Z,69.37
2022-10-25T01:13:06.961Z,70.63
2022-10-25T01:15:42.355Z,69.83
2022-10-25T01:18:17.455Z,69.90
2022-10-25T01:21:23.044Z,68.50
2022-10-25T01:24:09.777Z,78.60
2022-10-25T01:27:08.100Z,74.10
2022-10-25T01:30:09.534Z,70.90
2022-10-25T01:32:50.015Z,67.23
2022-10-25T01:35:25.761Z,63.20
2022-10-25T01:38:19.737Z,62.87
2022-10-25T01:40:55.164Z,61.80
2022-10-25T01:43:32.567Z,59.03
2022-10-25T01:46:11.757Z,56.77
2022-10-25T01:48:47.320Z,57.97
2022-10-25T01:51:18.365Z,56.80
2022-10-25T01:53:52.459Z,61.17
2022-10-25T01:56:26.386Z,60.47
2022-10-25T01:59:31.758Z,64.87
2022-10-25T02:02:08.332Z,63.70
2022-10-25T02:04:53.495Z,65.27
2022-10-25T02:07:28.333Z,69.13
2022-10-25T02:10:08.720Z,68.77
2022-10-25T02:12:47.912Z,68.23
2022-10-25T02:15:22.910Z,59.83
2022-10-25T02:17:58.988Z,53.97
2022-10-25T02:20:34.319Z,48.43
2022-10-25T02:23:05.894Z,47.30
2022-10-25T02:25:36.221Z,37.23
2022-10-25T02:28:08.785Z,33.43
2022-10-25T02:30:39.816Z,34.07
2022-10-25T02:33:08.906Z,33.77
2022-10-25T02:35:39.459Z,37.27
2022-10-25T02:38:08.559Z,37.57
2022-10-25T02:40:37.774Z,41.23
2022-10-25T02:43:06.688Z,38.97
2022-10-25T02:45:35.537Z,52.07
2022-10-25T02:48:04.352Z,51.90
2022-10-25T02:50:33.202Z,51.83
2022-10-25T02:53:03.336Z,51.90
2022-10-25T02:55:32.100Z,58.10
2022-10-25T02:58:00.983Z,57.37
2022-10-25T03:00:30.183Z,61.10
2022-10-25T03:02:59.110Z,58.77
2022-10-25T03:05:28.019Z,62.67
2022-10-25T03:07:58.889Z,59.63
2022-10-25T03:10:29.664Z,53.07
2022-10-25T03:12:58.696Z,49.73
2022-10-25T03:15:27.525Z,58.53
2022-10-25T03:17:56.400Z,57.67
2022-10-25T03:20:25.242Z,54.53
2022-10-25T03:22:54.069Z,50.47
2022-10-25T03:25:23.030Z,46.53
2022-10-25T03:27:53.290Z,45.17
2022-10-25T03:30:22.314Z,40.83
2022-10-25T03:32:51.142Z,39.87
2022-10-25T03:35:20.493Z,38.20
2022-10-25T03:37:50.030Z,35.37
2022-10-25T03:40:19.873Z,34.33
2022-10-25T03:42:48.801Z,30.23
2022-10-25T03:45:19.652Z,29.07
2022-10-25T03:47:48.765Z,28.93
2022-10-25T03:50:17.680Z,27.43
2022-10-25T03:52:46.558Z,26.93
2022-10-25T03:55:15.434Z,24.97
2022-10-25T03:57:44.501Z,25.37
2022-10-25T04:00:14.666Z,24.87
2022-10-25T04:02:45.007Z,23.97
2022-10-25T04:05:13.935Z,22.67
2022-10-25T04:07:42.697Z,23.60
2022-10-25T04:10:11.627Z,22.80
2022-10-25T04:12:40.473Z,22.93
2022-10-25T04:15:10.814Z,25.07
2022-10-25T04:17:39.748Z,26.03
2022-10-25T04:20:11.353Z,28.03
2022-10-25T04:22:40.297Z,26.77
2022-10-25T04:25:10.041Z,28.73
2022-10-25T04:27:38.997Z,33.73
2022-10-25T04:30:08.667Z,41.20
2022-10-25T04:32:37.445Z,41.67
2022-10-25T04:35:07.285Z,42.03
2022-10-25T04:37:37.652Z,41.20
2022-10-25T04:40:07.456Z,38.10
2022-10-25T04:42:36.808Z,43.00
2022-10-25T04:45:06.588Z,48.10
2022-10-25T04:47:36.029Z,50.03
2022-10-25T04:50:05.469Z,49.30
2022-10-25T04:52:34.351Z,58.27
2022-10-25T04:55:04.761Z,51.03
2022-10-25T04:57:33.707Z,53.80
2022-10-25T05:00:02.484Z,67.67
2022-10-25T05:02:31.320Z,68.97
2022-10-25T05:05:18.898Z,67.27
2022-10-25T05:07:47.701Z,67.47
2022-10-25T05:10:36.435Z,66.73
2022-10-25T05:13:05.377Z,58.63
2022-10-25T05:15:56.648Z,51.90
2022-10-25T05:18:25.852Z,50.87
2022-10-25T05:20:55.440Z,55.67
2022-10-25T05:23:25.198Z,56.20
2022-10-25T05:26:04.631Z,49.93
2022-10-25T05:28:33.740Z,47.37
2022-10-25T05:31:05.421Z,43.87
2022-10-25T05:33:35.342Z,36.47
2022-10-25T05:36:05.169Z,29.63
2022-10-25T05:38:36.982Z,30.47
2022-10-25T05:41:08.994Z,30.07
2022-10-25T05:43:37.968Z,29.00
2022-10-25T05:46:08.387Z,27.90
2022-10-25T05:48:38.433Z,28.47
2022-10-25T05:51:34.686Z,58.13
2022-10-25T05:54:08.437Z,55.27
2022-10-25T05:56:39.600Z,48.97
2022-10-25T05:59:10.449Z,35.33
2022-10-25T06:01:41.236Z,33.70
2022-10-25T06:04:11.064Z,30.27
2022-10-25T06:06:41.834Z,29.40
2022-10-25T06:09:11.561Z,30.37
2022-10-25T06:11:41.949Z,27.10
2022-10-25T06:14:11.734Z,29.33
2022-10-25T06:16:40.592Z,26.67
2022-10-25T06:19:09.873Z,21.70
2022-10-25T06:21:38.721Z,25.30
2022-10-25T06:24:08.011Z,27.43
2022-10-25T06:26:37.258Z,26.33
2022-10-25T06:29:07.662Z,25.83
2022-10-25T06:31:36.465Z,24.43
2022-10-25T06:34:05.438Z,24.17
2022-10-25T06:36:34.368Z,25.53
2022-10-25T06:39:05.328Z,24.03
2022-10-25T06:41:37.273Z,23.57
2022-10-25T06:44:08.243Z,22.17
2022-10-25T06:49:28.465Z,22.93
2022-10-25T06:51:58.704Z,22.63
2022-10-25T06:54:27.986Z,22.47
2022-10-25T06:57:15.331Z,24.07
2022-10-25T06:59:46.098Z,20.13
2022-10-25T07:02:15.271Z,19.97
2022-10-25T07:04:44.148Z,17.87
2022-10-25T07:07:15.239Z,17.17
2022-10-25T07:09:44.184Z,17.40
2022-10-25T07:12:13.272Z,16.63
2022-10-25T07:14:42.103Z,16.67
2022-10-25T07:17:12.562Z,17.60
2022-10-25T07:19:41.612Z,15.90
2022-10-25T07:22:10.366Z,16.80
2022-10-25T07:24:39.164Z,16.10
2022-10-25T07:27:08.559Z,13.00
2022-10-25T07:29:37.526Z,11.90
2022-10-25T07:32:06.842Z,10.67
2022-10-25T07:34:37.178Z,12.13
2022-10-25T07:37:07.255Z,11.30
2022-10-25T07:39:36.105Z,9.00
2022-10-25T07:42:05.063Z,9.40
2022-10-25T07:44:33.995Z,9.60
2022-10-25T07:47:02.825Z,10.43
2022-10-25T07:49:31.670Z,9.37
2022-10-25T07:52:02.028Z,9.83
2022-10-25T07:54:30.948Z,9.50
2022-10-25T07:56:59.794Z,10.77
2022-10-25T07:59:29.185Z,10.50
2022-10-25T08:01:58.007Z,9.27
2022-10-25T08:04:29.465Z,11.80
2022-10-25T08:07:02.568Z,13.77
2022-10-25T08:09:38.325Z,13.90
2022-10-25T08:12:26.087Z,14.07
2022-10-25T08:14:54.975Z,14.43
2022-10-25T08:17:23.910Z,14.83
2022-10-25T08:19:52.691Z,13.27
2022-10-25T08:22:23.587Z,13.90
2022-10-25T08:24:52.526Z,14.30
2022-10-25T08:27:21.358Z,12.03
2022-10-25T08:29:50.237Z,11.73
2022-10-25T08:32:19.242Z,12.60
2022-10-25T08:34:48.092Z,10.40
2022-10-25T08:37:16.902Z,14.47
2022-10-25T08:39:47.172Z,19.27
2022-10-25T08:42:24.371Z,18.30
2022-10-25T08:45:01.867Z,13.87
2022-10-25T08:47:36.491Z,22.80
2022-10-25T08:50:12.733Z,17.73
2022-10-25T08:52:48.007Z,15.93
2022-10-25T08:55:21.073Z,12.87
2022-10-25T08:57:52.939Z,10.43
2022-10-25T09:00:24.054Z,9.23
2022-10-25T09:02:55.536Z,9.13
2022-10-25T09:05:37.875Z,11.20
2022-10-25T09:08:28.296Z,5.77
2022-10-25T09:11:08.928Z,7.37
2022-10-25T09:13:46.137Z,8.53
2022-10-25T09:16:18.540Z,9.80
2022-10-25T09:18:50.926Z,11.87
2022-10-25T09:21:23.256Z,9.97
2022-10-25T09:24:01.510Z,12.90
2022-10-25T09:26:42.320Z,11.10
2022-10-25T09:29:19.166Z,8.93
2022-10-25T09:31:52.414Z,9.47
2022-10-25T09:34:23.883Z,9.30
2022-10-25T09:37:18.697Z,9.13
2022-10-25T09:39:50.415Z,8.97
2022-10-25T09:42:26.336Z,9.07
2022-10-25T09:44:59.964Z,9.10
2022-10-25T09:47:43.114Z,10.87
2022-10-25T09:50:20.090Z,12.50
2022-10-25T09:53:00.833Z,12.13
2022-10-25T09:55:36.486Z,12.40
2022-10-25T09:58:07.705Z,13.20
2022-10-25T10:00:57.243Z,9.87
2022-10-25T10:03:30.443Z,14.97
2022-10-25T10:06:04.477Z,13.23
2022-10-25T10:08:36.629Z,12.43
2022-10-25T10:11:07.439Z,14.53
2022-10-25T10:13:44.165Z,12.83
2022-10-25T10:16:23.412Z,10.20
2022-10-25T10:18:52.356Z,9.10
2022-10-25T10:21:22.546Z,9.40
2022-10-25T10:23:54.882Z,10.27
2022-10-25T10:26:29.477Z,11.17
2022-10-25T10:29:15.438Z,12.20
2022-10-25T10:31:49.859Z,11.90
2022-10-25T10:34:55.685Z,10.17
2022-10-25T10:37:26.744Z,9.37
2022-10-25T10:40:25.806Z,8.63
2022-10-25T10:42:57.073Z,8.90
2022-10-25T10:45:29.580Z,10.20
2022-10-25T10:47:59.848Z,10.33
2022-10-25T10:50:33.053Z,10.70
2022-10-25T10:53:04.025Z,8.40
2022-10-25T10:55:35.017Z,7.10
2022-10-25T10:58:07.680Z,9.70
2022-10-25T11:00:38.201Z,14.80
2022-10-25T11:03:07.281Z,11.67
2022-10-25T11:05:39.739Z,9.60
2022-10-25T11:08:22.403Z,9.40
2022-10-25T11:10:51.223Z,11.87
2022-10-25T11:13:23.080Z,8.10
2022-10-25T11:16:38.889Z,6.37
2022-10-25T11:19:18.393Z,6.27
2022-10-25T11:22:17.445Z,6.20
2022-10-25T11:24:55.964Z,6.10
2022-10-25T11:27:36.034Z,5.00
2022-10-25T11:30:10.931Z,5.43
2022-10-25T11:33:28.839Z,6.10
2022-10-25T11:36:26.891Z,5.20
2022-10-25T11:39:07.802Z,4.53
2022-10-25T11:41:45.684Z,4.20
2022-10-25T11:44:41.754Z,5.13
2022-10-25T11:47:24.699Z,4.50
2022-10-25T11:50:14.552Z,5.90
2022-10-25T11:53:06.077Z,5.47
2022-10-25T11:55:40.511Z,7.80
2022-10-25T11:58:31.553Z,7.60
2022-10-25T12:01:12.503Z,7.50
2022-10-25T12:03:56.900Z,6.40
2022-10-25T12:06:34.996Z,7.90
2022-10-25T12:09:11.800Z,13.17
2022-10-25T12:11:46.394Z,11.23
2022-10-25T12:14:26.950Z,9.90
2022-10-25T12:17:02.051Z,10.10
2022-10-25T12:19:51.591Z,8.03
2022-10-25T12:22:25.578Z,8.07
2022-10-25T12:25:01.008Z,8.17
2022-10-25T12:27:31.247Z,7.27
2022-10-25T12:30:04.385Z,7.50
2022-10-25T12:32:40.336Z,7.37
2022-10-25T12:35:20.451Z,9.20
2022-10-25T12:37:58.004Z,9.30
2022-10-25T12:40:29.468Z,10.50
2022-10-25T12:43:07.138Z,10.83
2022-10-25T12:46:07.587Z,9.90
2022-10-25T12:49:29.704Z,7.87
2022-10-25T12:52:18.036Z,7.47
2022-10-25T12:55:43.825Z,8.00
2022-10-25T12:58:42.332Z,6.93
2022-10-25T13:01:25.318Z,6.80
2022-10-25T13:04:22.551Z,7.00
2022-10-25T13:06:53.405Z,6.50
2022-10-25T13:09:27.095Z,6.70
2022-10-25T13:12:00.374Z,6.50
2022-10-25T13:14:32.824Z,7.57
2022-10-25T13:17:38.670Z,6.87
2022-10-25T13:20:49.920Z,6.47
2022-10-25T13:23:59.853Z,6.53
2022-10-25T13:26:34.086Z,7.10
2022-10-25T13:29:05.188Z,6.57
2022-10-25T13:31:49.155Z,6.47
2022-10-25T13:34:37.678Z,7.57
2022-10-25T13:37:32.330Z,9.20
2022-10-25T13:40:24.866Z,8.27
2022-10-25T13:43:21.798Z,73.73
2022-10-25T13:45:56.415Z,25.20
2022-10-25T13:48:31.141Z,89.17
2022-10-25T13:51:02.659Z,10.57
2022-10-25T13:53:39.066Z,55.97
2022-10-25T13:56:10.143Z,52.97
2022-10-25T13:58:53.124Z,36.07
2022-10-25T14:01:58.011Z,18.83
2022-10-25T14:04:50.244Z,15.33
2022-10-25T14:07:48.865Z,9.70
2022-10-25T14:10:22.556Z,17.30
2022-10-25T14:12:53.814Z,7.63
2022-10-25T14:15:37.285Z,7.40
2022-10-25T14:18:13.573Z,7.37
2022-10-25T14:20:47.305Z,7.63
2022-10-25T14:23:20.074Z,8.63
2022-10-25T14:25:53.203Z,10.90
2022-10-25T14:28:28.972Z,12.00
2022-10-25T14:30:59.525Z,10.23
2022-10-25T14:33:30.975Z,11.83
2022-10-25T14:36:10.215Z,12.70
2022-10-25T14:38:59.694Z,11.87
2022-10-25T14:41:30.058Z,11.47
2022-10-25T14:43:59.649Z,15.23
2022-10-25T14:46:34.786Z,15.37
2022-10-25T14:49:04.668Z,17.00
2022-10-25T14:51:38.143Z,20.43
2022-10-25T14:54:09.211Z,20.93
2022-10-25T14:56:40.303Z,20.87
2022-10-25T14:59:19.670Z,22.07
2022-10-25T15:01:54.854Z,23.13
2022-10-25T15:04:33.100Z,24.27
2022-10-25T15:07:04.862Z,28.37
2022-10-25T15:09:43.042Z,26.80
2022-10-25T15:12:21.960Z,26.23
2022-10-25T15:14:50.856Z,28.90
2022-10-25T15:17:31.726Z,27.97
2022-10-25T15:20:07.608Z,31.23
2022-10-25T15:22:50.373Z,24.07
2022-10-25T15:25:29.773Z,25.53
2022-10-25T15:28:09.943Z,27.80
2022-10-25T15:30:41.023Z,27.40
2022-10-25T15:33:13.183Z,28.87
2022-10-25T15:35:48.675Z,31.40
2022-10-25T15:38:19.538Z,30.97
2022-10-25T15:40:49.751Z,30.83
2022-10-25T15:43:18.661Z,32.03
2022-10-25T15:45:47.478Z,37.13
2022-10-25T15:48:18.889Z,41.57
2022-10-25T15:50:50.437Z,51.90
2022-10-25T15:53:22.417Z,62.53
2022-10-25T15:55:52.060Z,59.80
2022-10-25T15:58:21.078Z,60.80
2022-10-25T16:00:52.448Z,49.33
2022-10-25T16:03:24.723Z,50.97
2022-10-25T16:05:54.557Z,48.17
2022-10-25T16:08:25.010Z,52.20
2022-10-25T16:11:16.633Z,57.50
2022-10-25T16:13:47.765Z,68.47
2022-10-25T16:16:39.253Z,50.07
2022-10-25T16:19:14.885Z,43.97
2022-10-25T16:22:02.814Z,35.10
2022-10-25T16:24:33.117Z,39.30
2022-10-25T16:27:02.302Z,36.83
2022-10-25T16:29:31.239Z,35.27
2022-10-25T16:32:00.083Z,33.93
2022-10-25T16:34:29.209Z,35.73
2022-10-25T16:36:58.250Z,38.57
2022-10-25T16:39:27.290Z,41.10
2022-10-25T16:41:58.505Z,40.07
2022-10-25T16:44:27.378Z,37.43
2022-10-25T16:46:56.240Z,34.17
2022-10-25T16:49:25.042Z,32.13
2022-10-25T16:52:03.786Z,29.87
2022-10-25T16:54:33.203Z,30.43
2022-10-25T16:57:03.545Z,30.20
2022-10-25T16:59:32.384Z,31.13
2022-10-25T17:02:01.223Z,31.00
2022-10-25T17:04:30.216Z,30.43
2022-10-25T17:07:00.915Z,28.77
2022-10-25T17:09:30.038Z,29.00
2022-10-25T17:11:58.835Z,28.07
2022-10-25T17:14:29.148Z,24.47
2022-10-25T17:17:02.286Z,25.10
2022-10-25T17:19:32.680Z,25.73
2022-10-25T17:22:01.623Z,26.13
2022-10-25T17:24:38.909Z,25.47
2022-10-25T17:27:13.089Z,26.60
2022-10-25T17:29:47.502Z,25.63
2022-10-25T17:32:25.455Z,25.53
2022-10-25T17:34:57.769Z,28.40
2022-10-25T17:37:26.942Z,34.50
2022-10-25T17:39:55.986Z,35.30
2022-10-25T17:42:24.855Z,31.20
2022-10-25T17:44:55.392Z,26.67
2022-10-25T17:47:24.560Z,24.77
2022-10-25T17:49:54.533Z,21.87
2022-10-25T17:52:23.598Z,21.33
2022-10-25T17:54:52.363Z,20.07
2022-10-25T17:57:21.240Z,20.40
2022-10-25T17:59:50.674Z,21.30
2022-10-25T18:02:21.012Z,25.03
2022-10-25T18:05:02.324Z,27.80
2022-10-25T18:07:40.174Z,29.03
2022-10-25T18:10:11.757Z,29.53
2022-10-25T18:12:40.663Z,30.17
2022-10-25T18:15:10.533Z,32.33
2022-10-25T18:17:40.982Z,33.47
2022-10-25T18:20:10.694Z,33.37
2022-10-25T18:22:39.468Z,32.03
2022-10-25T18:25:09.176Z,31.67
2022-10-25T18:27:38.168Z,31.30
2022-10-25T18:30:08.178Z,30.90
2022-10-25T18:32:37.712Z,29.50
2022-10-25T18:35:09.091Z,28.43
2022-10-25T18:37:47.827Z,28.73
2022-10-25T18:40:17.576Z,29.93
2022-10-25T18:42:48.514Z,28.97
2022-10-25T18:45:17.545Z,29.43
2022-10-25T18:47:50.558Z,29.13
2022-10-25T18:50:21.511Z,28.50
2022-10-25T18:52:50.765Z,29.37
2022-10-25T18:55:22.181Z,27.33
2022-10-25T18:57:51.401Z,28.37
2022-10-25T19:00:20.768Z,28.17
2022-10-25T19:02:54.154Z,28.80
2022-10-25T19:05:27.399Z,25.80
2022-10-25T19:07:56.627Z,23.73
2022-10-25T19:10:25.696Z,23.37
2022-10-25T19:12:54.529Z,22.77
2022-10-25T19:15:23.481Z,21.77
2022-10-25T19:17:53.306Z,21.97
2022-10-25T19:20:23.582Z,21.97
2022-10-25T19:22:53.286Z,21.50
2022-10-25T19:25:41.024Z,19.43
2022-10-25T19:28:10.048Z,21.13
2022-10-25T19:30:40.392Z,21.27
2022-10-25T19:33:10.190Z,22.50
2022-10-25T19:35:40.583Z,23.67
2022-10-25T19:38:27.929Z,24.60
2022-10-25T19:41:01.081Z,23.70
2022-10-25T19:43:30.307Z,22.47
2022-10-25T19:45:59.736Z,22.77
2022-10-25T19:48:29.882Z,24.57
2022-10-25T19:51:05.977Z,25.43
2022-10-25T19:53:35.416Z,37.47
2022-10-25T19:56:07.300Z,38.23
2022-10-25T19:58:37.017Z,36.77
2022-10-25T20:01:09.317Z,40.03
2022-10-25T20:03:39.823Z,42.97
2022-10-25T20:06:12.677Z,46.00
2022-10-25T20:08:42.017Z,51.40
2022-10-25T20:11:12.416Z,61.50
2022-10-25T20:13:41.670Z,61.03
2022-10-25T20:16:11.470Z,59.83
2022-10-25T20:19:01.947Z,62.03
2022-10-25T20:21:35.321Z,70.37
2022-10-25T20:24:22.695Z,64.77
2022-10-25T20:26:51.499Z,63.43
2022-10-25T20:29:24.183Z,61.03
2022-10-25T20:31:53.760Z,62.60
2022-10-25T20:34:22.858Z,61.77
2022-10-25T20:36:53.062Z,61.73
2022-10-25T20:39:22.105Z,55.40
2022-10-25T20:41:50.987Z,53.57
2022-10-25T20:44:20.066Z,50.57
2022-10-25T20:46:50.501Z,49.30
2022-10-25T20:49:19.817Z,47.93
2022-10-25T20:51:49.014Z,47.47
2022-10-25T20:54:19.273Z,44.77
2022-10-25T20:57:08.915Z,43.97
2022-10-25T20:59:37.991Z,41.10
2022-10-25T21:02:07.335Z,38.83
2022-10-25T21:04:42.589Z,36.93
2022-10-25T21:07:24.579Z,35.33
2022-10-25T21:09:55.163Z,32.83
2022-10-25T21:12:24.827Z,33.07
2022-10-25T21:14:53.646Z,34.33
2022-10-25T21:17:22.554Z,36.13
2022-10-25T21:19:51.643Z,36.27
2022-10-25T21:22:20.445Z,36.83
2022-10-25T21:24:49.455Z,33.83
2022-10-25T21:27:19.829Z,27.90
2022-10-25T21:29:48.756Z,25.30
2022-10-25T21:32:17.552Z,25.50
2022-10-25T21:34:46.517Z,23.50
2022-10-25T21:37:15.485Z,21.70
2022-10-25T21:39:46.059Z,20.77
2022-10-25T21:42:15.339Z,25.60
2022-10-25T21:44:46.078Z,30.40
2022-10-25T21:47:15.929Z,34.37
2022-10-25T21:49:44.824Z,40.30
2022-10-25T21:52:13.941Z,46.23
2022-10-25T21:54:43.061Z,51.50
2022-10-25T21:57:12.133Z,55.27
2022-10-25T21:59:41.505Z,57.37
2022-10-25T22:02:12.049Z,57.63
2022-10-25T22:04:42.705Z,60.73
2022-10-25T22:07:11.629Z,60.27
2022-10-25T22:09:40.452Z,61.40
2022-10-25T22:12:09.364Z,56.43
2022-10-25T22:14:38.171Z,48.90
2022-10-25T22:17:06.901Z,48.43
2022-10-25T22:19:37.128Z,51.80
2022-10-25T22:22:06.142Z,51.60
2022-10-25T22:24:34.888Z,52.60
2022-10-25T22:27:03.645Z,48.53
2022-10-25T22:29:32.480Z,44.90
2022-10-25T22:32:01.315Z,41.03
2022-10-25T22:34:30.078Z,47.47
2022-10-25T22:37:01.541Z,50.83
2022-10-25T22:39:30.405Z,55.10
2022-10-25T22:41:59.184Z,69.30
2022-10-25T22:44:27.937Z,74.30
2022-10-25T22:46:56.787Z,72.60
2022-10-25T22:49:25.601Z,70.07
2022-10-25T22:51:54.566Z,70.93
2022-10-25T22:54:24.802Z,70.43
2022-10-25T22:56:53.661Z,69.87
2022-10-25T22:59:23.203Z,71.40
2022-10-25T23:01:51.995Z,67.70
2022-10-25T23:04:20.983Z,64.83
2022-10-25T23:06:49.730Z,54.27
2022-10-25T23:09:18.644Z,54.73
2022-10-25T23:11:50.261Z,55.87
2022-10-25T23:14:19.139Z,60.33
2022-10-25T23:16:48.262Z,60.67
2022-10-25T23:19:17.064Z,64.70
2022-10-25T23:21:45.988Z,57.43
2022-10-25T23:24:14.754Z,48.27
2022-10-25T23:26:43.681Z,39.63
2022-10-25T23:29:14.687Z,35.00
2022-10-25T23:31:43.661Z,35.67
2022-10-25T23:34:12.881Z,33.93
2022-10-25T23:36:41.718Z,34.53
2022-10-25T23:39:10.954Z,33.43
2022-10-25T23:41:39.869Z,32.40
2022-10-25T23:44:08.756Z,30.53
2022-10-25T23:46:39.150Z,31.50
2022-10-25T23:49:08.103Z,36.00
2022-10-25T23:51:36.957Z,45.70
2022-10-25T23:54:09.697Z,45.67
2022-10-25T23:56:38.770Z,44.27
2022-10-25T23:59:07.557Z,45.33
